createdAt,value
2023-02-14T00:01:58.477Z,4.16
2023-02-14T00:04:25.257Z,4.21
2023-02-14T00:06:51.867Z,4.27
2023-02-14T00:09:19.768Z,4.24
2023-02-14T00:11:46.303Z,4.25
2023-02-14T00:14:31.642Z,4.34
2023-02-14T00:16:58.372Z,4.19
2023-02-14T00:19:24.963Z,4.22
2023-02-14T00:21:51.755Z,4.17
2023-02-14T00:24:23.914Z,4.04
2023-02-14T00:26:51.302Z,3.96
2023-02-14T00:29:20.905Z,4.01
2023-02-14T00:31:47.449Z,3.98
2023-02-14T00:34:16.375Z,3.82
2023-02-14T00:36:43.493Z,3.86
2023-02-14T00:39:13.427Z,3.75
2023-02-14T00:41:40.975Z,3.73
2023-02-14T00:44:10.144Z,3.64
2023-02-14T00:46:37.001Z,3.60
2023-02-14T00:49:04.277Z,3.41
2023-02-14T00:51:31.219Z,3.36
2023-02-14T00:53:57.906Z,3.42
2023-02-14T00:56:24.463Z,3.43
2023-02-14T00:58:51.013Z,3.49
2023-02-14T01:01:18.670Z,3.39
2023-02-14T01:03:45.222Z,3.28
2023-02-14T01:06:11.746Z,3.23
2023-02-14T01:08:38.412Z,3.24
2023-02-14T01:11:17.017Z,3.34
2023-02-14T01:13:44.239Z,3.35
2023-02-14T01:16:15.569Z,3.41
2023-02-14T01:18:43.272Z,3.34
2023-02-14T01:21:11.891Z,3.31
2023-02-14T01:23:38.417Z,3.35
2023-02-14T01:26:06.824Z,3.34
2023-02-14T01:28:33.880Z,3.27
2023-02-14T01:31:09.306Z,3.34
2023-02-14T01:33:36.279Z,3.30
2023-02-14T01:36:03.059Z,3.14
2023-02-14T01:38:29.810Z,3.09
2023-02-14T01:40:57.064Z,3.08
2023-02-14T01:43:23.744Z,3.03
2023-02-14T01:45:50.316Z,2.92
2023-02-14T01:48:21.036Z,2.97
2023-02-14T01:50:49.577Z,2.95
2023-02-14T01:53:23.754Z,2.88
2023-02-14T01:55:59.233Z,2.98
2023-02-14T01:58:31.971Z,2.98
2023-02-14T02:00:59.174Z,2.80
2023-02-14T02:03:39.936Z,2.67
2023-02-14T02:06:26.356Z,2.61
2023-02-14T02:09:04.949Z,2.47
2023-02-14T02:11:31.603Z,2.46
2023-02-14T02:13:58.105Z,2.48
2023-02-14T02:16:33.528Z,2.41
2023-02-14T02:19:27.191Z,2.48
2023-02-14T02:22:30.312Z,2.37
2023-02-14T02:25:19.290Z,2.41
2023-02-14T02:28:03.889Z,2.35
2023-02-14T02:31:01.921Z,2.31
2023-02-14T02:33:52.867Z,2.21
2023-02-14T02:36:34.407Z,2.14
2023-02-14T02:39:16.099Z,2.18
2023-02-14T02:42:04.189Z,2.21
2023-02-14T02:44:51.868Z,2.26
2023-02-14T02:47:33.541Z,2.18
2023-02-14T02:50:47.107Z,2.12
2023-02-14T02:53:43.986Z,1.96
2023-02-14T02:56:35.031Z,2.07
2023-02-14T02:59:18.252Z,2.04
2023-02-14T03:02:05.117Z,2.03
2023-02-14T03:04:53.344Z,2.04
2023-02-14T03:07:34.873Z,2.15
2023-02-14T03:10:07.949Z,2.00
2023-02-14T03:12:34.335Z,2.11
2023-02-14T03:15:06.873Z,2.04
2023-02-14T03:17:39.813Z,2.03
2023-02-14T03:20:16.814Z,2.10
2023-02-14T03:23:14.808Z,2.11
2023-02-14T03:26:00.240Z,2.14
2023-02-14T03:28:43.821Z,2.07
2023-02-14T03:31:23.934Z,1.95
2023-02-14T03:34:01.591Z,2.02
2023-02-14T03:36:35.278Z,2.00
2023-02-14T03:39:21.840Z,1.88
2023-02-14T03:41:53.336Z,1.76
2023-02-14T03:44:25.862Z,1.85
2023-02-14T03:47:00.599Z,1.95
2023-02-14T03:49:31.194Z,1.99
2023-02-14T03:52:01.015Z,1.96
2023-02-14T03:54:30.297Z,1.93
2023-02-14T03:57:08.012Z,1.99
2023-02-14T03:59:35.604Z,1.91
2023-02-14T04:02:34.400Z,1.87
2023-02-14T04:05:03.959Z,1.89
2023-02-14T04:07:30.460Z,1.75
2023-02-14T04:09:57.192Z,1.66
2023-02-14T04:12:36.875Z,1.79
2023-02-14T04:15:05.101Z,1.83
2023-02-14T04:17:50.224Z,1.78
2023-02-14T04:20:16.802Z,1.76
2023-02-14T04:22:43.265Z,1.83
2023-02-14T04:25:09.737Z,1.81
2023-02-14T04:27:36.201Z,1.85
2023-02-14T04:30:03.770Z,1.85
2023-02-14T04:32:30.321Z,1.83
2023-02-14T04:34:56.880Z,1.74
2023-02-14T04:37:23.434Z,1.72
2023-02-14T04:39:49.955Z,1.70
2023-02-14T04:42:16.503Z,1.75
2023-02-14T04:44:43.085Z,1.84
2023-02-14T04:47:09.711Z,1.82
2023-02-14T04:49:36.781Z,1.77
2023-02-14T04:52:03.973Z,1.80
2023-02-14T04:54:30.577Z,1.70
2023-02-14T04:56:57.078Z,1.63
2023-02-14T04:59:25.080Z,1.62
2023-02-14T05:01:52.320Z,1.67
2023-02-14T05:04:19.165Z,1.74
2023-02-14T05:06:45.719Z,1.76
2023-02-14T05:09:12.209Z,1.67
2023-02-14T05:11:38.744Z,1.61
2023-02-14T05:14:05.280Z,1.59
2023-02-14T05:16:31.828Z,1.53
2023-02-14T05:18:58.405Z,1.56
2023-02-14T05:21:24.977Z,1.64
2023-02-14T05:23:51.488Z,1.56
2023-02-14T05:26:18.040Z,1.53
2023-02-14T05:28:44.529Z,1.58
2023-02-14T05:31:11.099Z,1.58
2023-02-14T05:33:37.798Z,1.47
2023-02-14T05:36:04.683Z,1.40
2023-02-14T05:38:31.508Z,1.30
2023-02-14T05:40:58.316Z,1.34
2023-02-14T05:43:26.240Z,1.28
2023-02-14T05:45:54.270Z,1.27
2023-02-14T05:48:20.928Z,1.29
2023-02-14T05:50:47.435Z,1.40
2023-02-14T05:53:14.452Z,1.36
2023-02-14T05:55:41.181Z,1.21
2023-02-14T05:58:07.860Z,1.20
2023-02-14T06:00:34.943Z,1.21
2023-02-14T06:03:01.488Z,1.24
2023-02-14T06:05:28.057Z,1.19
2023-02-14T06:07:54.618Z,1.21
2023-02-14T06:10:24.549Z,1.26
2023-02-14T06:12:52.973Z,1.39
2023-02-14T06:15:20.255Z,1.25
2023-02-14T06:17:59.733Z,1.20
2023-02-14T06:20:26.252Z,1.12
2023-02-14T06:22:53.151Z,1.13
2023-02-14T06:25:20.317Z,1.17
2023-02-14T06:27:49.282Z,1.15
2023-02-14T06:30:17.914Z,1.01
2023-02-14T06:32:44.636Z,1.07
2023-02-14T06:35:11.590Z,1.12
2023-02-14T06:37:38.868Z,1.15
2023-02-14T06:40:06.208Z,1.12
2023-02-14T06:42:32.740Z,1.18
2023-02-14T06:44:59.311Z,1.22
2023-02-14T06:47:25.892Z,1.20
2023-02-14T06:49:52.459Z,1.14
2023-02-14T06:52:19.012Z,1.12
2023-02-14T06:54:45.532Z,1.16
2023-02-14T06:57:12.063Z,1.25
2023-02-14T06:59:38.669Z,1.27
2023-02-14T07:02:05.271Z,1.26
2023-02-14T07:04:31.897Z,1.30
2023-02-14T07:06:58.354Z,1.25
2023-02-14T07:09:24.868Z,1.32
2023-02-14T07:11:51.463Z,1.48
2023-02-14T07:14:17.979Z,1.55
2023-02-14T07:16:44.440Z,1.45
2023-02-14T07:19:10.985Z,1.44
2023-02-14T07:21:37.553Z,1.54
2023-02-14T07:24:04.039Z,1.48
2023-02-14T07:26:30.476Z,1.47
2023-02-14T07:28:56.966Z,1.62
2023-02-14T07:31:23.835Z,1.51
2023-02-14T07:33:51.676Z,1.75
2023-02-14T07:36:19.234Z,2.06
2023-02-14T07:38:45.766Z,2.36
2023-02-14T07:41:12.334Z,2.62
2023-02-14T07:43:39.711Z,2.84
2023-02-14T07:46:06.646Z,3.17
2023-02-14T07:48:34.292Z,3.52
2023-02-14T07:51:01.816Z,3.63
2023-02-14T07:53:28.541Z,3.75
2023-02-14T07:55:55.059Z,3.91
2023-02-14T07:58:21.817Z,4.12
2023-02-14T08:00:48.612Z,4.23
2023-02-14T08:03:15.699Z,4.53
2023-02-14T08:05:42.248Z,4.56
2023-02-14T08:08:08.933Z,4.97
2023-02-14T08:10:35.411Z,5.03
2023-02-14T08:13:02.253Z,5.38
2023-02-14T08:15:50.022Z,5.71
2023-02-14T08:18:18.380Z,5.61
2023-02-14T08:20:46.650Z,6.37
2023-02-14T08:23:13.192Z,6.50
2023-02-14T08:25:40.604Z,6.33
2023-02-14T08:28:07.173Z,6.75
2023-02-14T08:30:36.763Z,6.78
2023-02-14T08:33:03.909Z,6.63
2023-02-14T08:35:30.488Z,7.19
2023-02-14T08:37:57.317Z,7.40
2023-02-14T08:40:24.391Z,7.44
2023-02-14T08:42:50.988Z,7.69
2023-02-14T08:45:17.568Z,7.43
2023-02-14T08:47:44.220Z,7.53
2023-02-14T08:50:13.773Z,8.19
2023-02-14T08:52:41.365Z,7.77
2023-02-14T08:55:08.010Z,8.29
2023-02-14T08:57:34.498Z,8.85
2023-02-14T09:00:01.116Z,9.47
2023-02-14T09:02:27.696Z,9.99
2023-02-14T09:04:54.147Z,10.30
2023-02-14T09:07:20.839Z,10.62
2023-02-14T09:09:47.468Z,10.96
2023-02-14T09:12:14.040Z,11.06
2023-02-14T09:14:46.185Z,10.92
2023-02-14T09:17:13.892Z,11.08
2023-02-14T09:19:40.473Z,10.85
2023-02-14T09:22:09.032Z,11.38
2023-02-14T09:24:37.622Z,11.61
2023-02-14T09:27:04.671Z,11.57
2023-02-14T09:29:32.151Z,12.16
2023-02-14T09:32:01.230Z,12.40
2023-02-14T09:34:47.183Z,12.49
2023-02-14T09:37:33.183Z,12.44
2023-02-14T09:39:59.708Z,11.93
2023-02-14T09:42:35.259Z,11.76
2023-02-14T09:45:07.041Z,12.44
2023-02-14T09:47:39.977Z,12.17
2023-02-14T09:50:27.987Z,13.09
2023-02-14T09:53:01.375Z,12.94
2023-02-14T09:55:30.990Z,12.24
2023-02-14T09:58:06.089Z,11.82
2023-02-14T10:00:38.080Z,11.77
2023-02-14T10:03:28.791Z,12.70
2023-02-14T10:06:10.294Z,12.87
2023-02-14T10:09:02.611Z,13.33
2023-02-14T10:11:29.435Z,13.07
2023-02-14T10:14:08.709Z,14.06
2023-02-14T10:16:45.758Z,13.68
2023-02-14T10:19:40.065Z,13.70
2023-02-14T10:22:14.209Z,13.96
2023-02-14T10:24:47.791Z,14.66
2023-02-14T10:27:17.011Z,13.38
2023-02-14T10:29:43.634Z,13.96
2023-02-14T10:32:15.242Z,14.26
2023-02-14T10:34:51.780Z,13.81
2023-02-14T10:37:23.380Z,14.97
2023-02-14T10:39:58.585Z,15.06
2023-02-14T10:42:52.780Z,15.31
2023-02-14T10:45:28.852Z,14.74
2023-02-14T10:48:08.327Z,14.58
2023-02-14T10:50:56.396Z,14.23
2023-02-14T10:53:27.546Z,14.24
2023-02-14T10:56:03.703Z,14.87
2023-02-14T10:58:36.082Z,15.06
2023-02-14T11:01:10.846Z,16.06
2023-02-14T11:03:39.742Z,15.70
2023-02-14T11:06:08.751Z,16.05
2023-02-14T11:08:38.198Z,15.18
2023-02-14T11:11:07.490Z,15.22
2023-02-14T11:13:37.183Z,15.19
2023-02-14T11:16:10.212Z,15.58
2023-02-14T11:18:39.583Z,15.64
2023-02-14T11:21:17.877Z,16.11
2023-02-14T11:23:49.659Z,15.77
2023-02-14T11:26:46.785Z,15.72
2023-02-14T11:29:17.348Z,15.05
2023-02-14T11:31:44.092Z,15.57
2023-02-14T11:34:37.129Z,15.58
2023-02-14T11:37:16.370Z,15.68
2023-02-14T11:39:42.994Z,15.36
2023-02-14T11:42:12.161Z,15.21
2023-02-14T11:44:55.063Z,15.64
2023-02-14T11:47:29.163Z,16.06
2023-02-14T11:50:06.113Z,15.43
2023-02-14T11:52:34.353Z,16.36
2023-02-14T11:55:01.500Z,16.31
2023-02-14T11:57:34.524Z,16.24
2023-02-14T12:00:11.632Z,16.17
2023-02-14T12:02:40.923Z,16.00
2023-02-14T12:05:20.655Z,16.19
2023-02-14T12:07:59.693Z,16.02
2023-02-14T12:10:38.135Z,16.24
2023-02-14T12:13:24.640Z,15.89
2023-02-14T12:15:56.728Z,15.56
2023-02-14T12:18:38.260Z,15.81
2023-02-14T12:21:23.488Z,15.41
2023-02-14T12:24:08.121Z,16.33
2023-02-14T12:26:59.067Z,16.50
2023-02-14T12:29:30.439Z,16.78
2023-02-14T12:32:02.277Z,16.81
2023-02-14T12:34:28.935Z,15.94
2023-02-14T12:37:19.582Z,16.31
2023-02-14T12:40:01.355Z,15.84
2023-02-14T12:43:19.085Z,15.93
2023-02-14T12:45:59.835Z,15.92
2023-02-14T12:48:35.288Z,15.26
2023-02-14T12:51:15.474Z,14.98
2023-02-14T12:54:14.182Z,14.93
2023-02-14T12:56:40.583Z,14.99
2023-02-14T12:59:31.941Z,14.64
2023-02-14T13:02:36.001Z,14.84
2023-02-14T13:05:21.034Z,15.41
2023-02-14T13:08:22.645Z,15.07
2023-02-14T13:10:55.684Z,15.01
2023-02-14T13:13:46.532Z,14.63
2023-02-14T13:16:16.106Z,14.78
2023-02-14T13:19:03.611Z,14.24
2023-02-14T13:21:35.477Z,14.39
2023-02-14T13:24:19.775Z,14.18
2023-02-14T13:26:50.293Z,13.98
2023-02-14T13:29:20.579Z,14.73
2023-02-14T13:31:48.472Z,14.47
2023-02-14T13:34:33.286Z,13.77
2023-02-14T13:37:02.590Z,13.57
2023-02-14T13:39:38.688Z,13.78
2023-02-14T13:42:06.650Z,13.29
2023-02-14T13:44:38.922Z,13.43
2023-02-14T13:47:15.161Z,13.22
2023-02-14T13:49:48.782Z,12.93
2023-02-14T13:52:48.724Z,12.44
2023-02-14T13:55:23.492Z,12.37
2023-02-14T13:58:05.585Z,11.88
2023-02-14T14:00:43.754Z,11.89
2023-02-14T14:03:15.112Z,11.52
2023-02-14T14:05:56.864Z,11.62
2023-02-14T14:08:23.484Z,11.58
2023-02-14T14:10:55.539Z,11.18
2023-02-14T14:13:40.469Z,11.35
2023-02-14T14:16:19.372Z,10.90
2023-02-14T14:18:45.922Z,10.62
2023-02-14T14:21:26.330Z,10.77
2023-02-14T14:24:14.370Z,10.92
2023-02-14T14:26:47.514Z,10.84
2023-02-14T14:29:30.335Z,10.78
2023-02-14T14:31:57.172Z,10.72
2023-02-14T14:34:26.541Z,10.56
2023-02-14T14:37:04.348Z,10.32
2023-02-14T14:39:33.444Z,10.41
2023-02-14T14:42:14.836Z,10.17
2023-02-14T14:44:54.688Z,10.22
2023-02-14T14:47:41.783Z,9.94
2023-02-14T14:50:19.664Z,9.87
2023-02-14T14:52:49.506Z,9.78
2023-02-14T14:55:21.238Z,9.51
2023-02-14T14:57:53.443Z,9.46
2023-02-14T15:00:28.557Z,9.34
2023-02-14T15:03:13.311Z,9.38
2023-02-14T15:05:42.672Z,9.40
2023-02-14T15:08:25.436Z,9.17
2023-02-14T15:11:13.009Z,9.27
2023-02-14T15:13:49.709Z,9.21
2023-02-14T15:16:20.747Z,9.21
2023-02-14T15:18:48.853Z,9.17
2023-02-14T15:21:16.776Z,8.90
2023-02-14T15:23:46.579Z,9.09
2023-02-14T15:26:22.220Z,9.02
2023-02-14T15:28:58.258Z,8.67
2023-02-14T15:31:29.485Z,8.85
2023-02-14T15:33:59.933Z,8.86
2023-02-14T15:36:27.203Z,8.62
2023-02-14T15:38:56.758Z,8.71
2023-02-14T15:41:24.875Z,8.34
2023-02-14T15:43:53.925Z,8.47
2023-02-14T15:46:31.110Z,8.49
2023-02-14T15:49:01.229Z,8.34
2023-02-14T15:51:35.822Z,8.19
2023-02-14T15:54:07.177Z,8.22
2023-02-14T15:56:37.176Z,8.14
2023-02-14T15:59:17.152Z,8.16
2023-02-14T16:01:54.920Z,8.00
2023-02-14T16:04:27.521Z,8.10
2023-02-14T16:07:06.732Z,8.00
2023-02-14T16:09:34.630Z,7.94
2023-02-14T16:12:31.990Z,7.90
2023-02-14T16:15:10.714Z,7.89
2023-02-14T16:17:37.332Z,7.77
2023-02-14T16:20:43.709Z,7.63
2023-02-14T16:23:21.074Z,7.60
2023-02-14T16:25:48.656Z,7.45
2023-02-14T16:28:15.830Z,7.42
2023-02-14T16:30:44.406Z,7.38
2023-02-14T16:33:17.722Z,7.23
2023-02-14T16:35:45.857Z,7.20
2023-02-14T16:38:16.205Z,7.26
2023-02-14T16:40:46.177Z,7.32
2023-02-14T16:43:14.921Z,7.24
2023-02-14T16:45:42.502Z,7.13
2023-02-14T16:48:09.575Z,7.07
2023-02-14T16:50:38.309Z,7.08
2023-02-14T16:53:08.913Z,6.90
2023-02-14T16:55:35.573Z,6.89
2023-02-14T16:58:02.993Z,6.85
2023-02-14T17:00:29.563Z,6.94
2023-02-14T17:03:06.240Z,6.94
2023-02-14T17:05:35.515Z,6.78
2023-02-14T17:08:04.488Z,6.65
2023-02-14T17:10:31.904Z,6.70
2023-02-14T17:12:59.489Z,6.79
2023-02-14T17:15:27.419Z,6.76
2023-02-14T17:18:05.246Z,6.68
2023-02-14T17:20:31.723Z,6.65
2023-02-14T17:22:58.374Z,6.53
2023-02-14T17:25:25.469Z,6.68
2023-02-14T17:27:52.194Z,6.62
2023-02-14T17:30:18.857Z,6.58
2023-02-14T17:32:45.593Z,6.49
2023-02-14T17:35:14.114Z,6.51
2023-02-14T17:37:40.652Z,6.44
2023-02-14T17:40:07.852Z,6.37
2023-02-14T17:42:35.448Z,6.35
2023-02-14T17:45:02.465Z,6.31
2023-02-14T17:47:29.632Z,6.20
2023-02-14T17:49:57.166Z,6.19
2023-02-14T17:52:24.373Z,6.30
2023-02-14T17:54:51.088Z,6.23
2023-02-14T17:57:18.140Z,6.23
2023-02-14T17:59:45.470Z,6.16
2023-02-14T18:02:12.353Z,6.03
2023-02-14T18:04:39.130Z,6.14
2023-02-14T18:07:05.901Z,5.99
2023-02-14T18:09:32.666Z,5.90
2023-02-14T18:11:59.194Z,5.98
2023-02-14T18:14:25.912Z,5.84
2023-02-14T18:16:52.631Z,5.85
2023-02-14T18:19:19.212Z,5.67
2023-02-14T18:21:46.214Z,5.80
2023-02-14T18:24:13.257Z,5.64
2023-02-14T18:26:41.101Z,5.61
2023-02-14T18:29:08.606Z,5.68
2023-02-14T18:31:38.000Z,5.57
2023-02-14T18:34:05.187Z,5.58
2023-02-14T18:36:32.372Z,5.60
2023-02-14T18:38:59.283Z,5.58
2023-02-14T18:41:26.999Z,5.56
2023-02-14T18:43:53.856Z,5.55
2023-02-14T18:46:27.276Z,5.36
2023-02-14T18:48:55.223Z,5.35
2023-02-14T18:51:27.473Z,5.36
2023-02-14T18:53:56.446Z,5.22
2023-02-14T18:56:26.502Z,5.15
2023-02-14T18:58:56.799Z,5.31
2023-02-14T19:01:30.512Z,5.15
2023-02-14T19:03:59.677Z,5.18
2023-02-14T19:06:29.377Z,5.47
2023-02-14T19:08:56.496Z,5.31
2023-02-14T19:11:25.662Z,5.42
2023-02-14T19:13:57.526Z,5.24
2023-02-14T19:16:27.161Z,5.23
2023-02-14T19:18:54.117Z,5.15
2023-02-14T19:21:23.528Z,5.26
2023-02-14T19:23:51.911Z,5.32
2023-02-14T19:26:21.083Z,5.09
2023-02-14T19:28:50.363Z,5.08
2023-02-14T19:31:17.399Z,5.05
2023-02-14T19:33:45.742Z,5.13
2023-02-14T19:36:14.485Z,4.93
2023-02-14T19:38:42.821Z,4.88
2023-02-14T19:41:20.628Z,5.04
2023-02-14T19:43:47.906Z,5.00
2023-02-14T19:46:16.284Z,5.01
2023-02-14T19:48:44.634Z,4.91
2023-02-14T19:51:21.180Z,4.89
2023-02-14T19:53:48.291Z,4.82
2023-02-14T19:56:19.928Z,4.88
2023-02-14T19:58:46.958Z,4.81
2023-02-14T20:01:23.281Z,4.98
2023-02-14T20:03:49.941Z,4.95
2023-02-14T20:06:16.526Z,5.02
2023-02-14T20:08:43.116Z,4.81
2023-02-14T20:11:23.032Z,4.76
2023-02-14T20:13:49.488Z,4.74
2023-02-14T20:16:15.974Z,4.67
2023-02-14T20:18:42.448Z,4.55
2023-02-14T20:21:16.674Z,4.72
2023-02-14T20:23:43.315Z,4.71
2023-02-14T20:26:14.672Z,4.56
2023-02-14T20:28:41.530Z,4.54
2023-02-14T20:31:13.067Z,4.47
2023-02-14T20:33:40.152Z,4.33
2023-02-14T20:36:09.655Z,4.20
2023-02-14T20:38:36.128Z,4.08
2023-02-14T20:41:11.230Z,3.78
2023-02-14T20:43:38.799Z,3.70
2023-02-14T20:46:06.995Z,3.49
2023-02-14T20:48:34.504Z,3.46
2023-02-14T20:51:14.357Z,3.26
2023-02-14T20:53:41.903Z,3.31
2023-02-14T20:56:08.756Z,3.18
2023-02-14T20:58:36.726Z,3.24
2023-02-14T21:01:13.178Z,3.05
2023-02-14T21:03:41.478Z,3.00
2023-02-14T21:06:11.535Z,3.07
2023-02-14T21:08:38.798Z,3.00
2023-02-14T21:11:06.834Z,2.87
2023-02-14T21:13:33.980Z,2.89
2023-02-14T21:16:17.217Z,2.97
2023-02-14T21:18:48.504Z,3.13
2023-02-14T21:21:20.291Z,3.25
2023-02-14T21:23:49.338Z,2.97
2023-02-14T21:26:16.264Z,3.09
2023-02-14T21:28:42.791Z,2.71
2023-02-14T21:31:12.389Z,2.78
2023-02-14T21:33:39.351Z,2.69
2023-02-14T21:36:06.817Z,2.74
2023-02-14T21:38:33.899Z,2.93
2023-02-14T21:41:05.106Z,2.80
2023-02-14T21:43:36.674Z,2.71
2023-02-14T21:46:08.457Z,2.69
2023-02-14T21:48:53.646Z,2.73
2023-02-14T21:51:20.996Z,2.79
2023-02-14T21:53:48.222Z,2.55
2023-02-14T21:56:18.044Z,2.48
2023-02-14T21:58:44.702Z,2.45
2023-02-14T22:01:16.599Z,2.67
2023-02-14T22:03:43.340Z,2.65
2023-02-14T22:06:10.450Z,2.69
2023-02-14T22:08:37.076Z,2.72
2023-02-14T22:11:08.757Z,2.77
2023-02-14T22:13:36.144Z,2.65
2023-02-14T22:16:07.117Z,2.77
2023-02-14T22:18:33.939Z,2.78
2023-02-14T22:21:01.994Z,2.81
2023-02-14T22:23:35.770Z,2.68
2023-02-14T22:26:25.639Z,2.58
2023-02-14T22:28:56.770Z,2.67
2023-02-14T22:31:24.925Z,2.65
2023-02-14T22:33:51.825Z,2.67
2023-02-14T22:36:18.335Z,2.61
2023-02-14T22:38:44.854Z,2.74
2023-02-14T22:41:14.238Z,2.59
2023-02-14T22:43:41.741Z,2.27
2023-02-14T22:46:19.360Z,2.40
2023-02-14T22:48:47.131Z,2.30
2023-02-14T22:51:21.904Z,2.19
2023-02-14T22:53:50.171Z,2.19
2023-02-14T22:56:22.693Z,2.28
2023-02-14T22:58:53.395Z,2.39
2023-02-14T23:01:21.518Z,2.25
2023-02-14T23:03:52.025Z,2.37
2023-02-14T23:06:18.693Z,2.08
2023-02-14T23:08:47.218Z,2.17
2023-02-14T23:11:16.965Z,2.10
2023-02-14T23:14:02.074Z,2.29
2023-02-14T23:16:47.673Z,2.13
2023-02-14T23:19:35.499Z,2.24
2023-02-14T23:22:11.064Z,2.41
2023-02-14T23:24:37.958Z,2.44
2023-02-14T23:27:04.966Z,2.20
2023-02-14T23:29:31.771Z,1.94
2023-02-14T23:31:58.453Z,1.86
2023-02-14T23:34:27.202Z,1.87
2023-02-14T23:36:53.671Z,1.93
2023-02-14T23:39:20.491Z,1.80
2023-02-14T23:41:49.900Z,1.80
2023-02-14T23:44:17.386Z,1.63
2023-02-14T23:46:44.139Z,1.62
2023-02-14T23:49:11.293Z,1.74
2023-02-14T23:51:37.844Z,1.75
2023-02-14T23:54:04.576Z,1.76
2023-02-14T23:56:31.280Z,1.88
2023-02-14T23:58:57.832Z,2.02
